St Pete Beach, Florida
Current Conditions -  °F | °C
As of 6:53 PM on Wednesday 22 Oct 2014 (Local Time) from KSPG Reporting Station
Clear Clear  
Wind Chill: 26°   Ceiling: Unl
Heat Index: 27°   Visibility: 10mi
Dew Point: 18°   Wind: 8mph
Humidity: 64%   Direction: 350°N
Pressure: 29.92"   Gusts: NA
Location:  27.7426°N, 82.7481°W
Report Text: KSPG 222253Z 35007KT 10SM CLR 26/18 A2992 RMK AO2 SLP132 T02560183
Loading
Personal Weather Stations






























Interactive Weather Map
Tropical Storm Tracking
New forecast layout! Learn more

10-Day Weather Forecast

Advertisements
Track Severe Weather on mobile